createdAt,value
2017-07-01T00:00:07.363Z,17.30
2017-07-01T00:02:33.929Z,17.30
2017-07-01T00:05:01.164Z,17.30
2017-07-01T00:07:27.737Z,17.30
2017-07-01T00:09:54.237Z,17.30
2017-07-01T00:12:20.789Z,17.30
2017-07-01T00:14:48.058Z,17.30
2017-07-01T00:17:14.570Z,17.30
2017-07-01T00:19:41.851Z,17.20
2017-07-01T00:22:08.344Z,17.20
2017-07-01T00:24:34.886Z,17.20
2017-07-01T00:27:01.415Z,17.10
2017-07-01T00:29:28.677Z,17.00
2017-07-01T00:31:55.995Z,16.90
2017-07-01T00:34:22.495Z,16.90
2017-07-01T00:36:49.088Z,16.90
2017-07-01T00:39:16.344Z,16.80
2017-07-01T00:41:43.611Z,16.70
2017-07-01T00:44:10.216Z,16.70
2017-07-01T00:46:36.769Z,16.70
2017-07-01T00:49:04.043Z,16.50
2017-07-01T00:51:30.558Z,16.50
2017-07-01T00:53:57.110Z,16.50
2017-07-01T00:56:23.577Z,16.40
2017-07-01T00:58:50.107Z,16.40
2017-07-01T01:01:16.737Z,16.30
2017-07-01T01:03:43.309Z,16.30
2017-07-01T01:06:10.658Z,16.30
2017-07-01T01:08:37.203Z,16.20
2017-07-01T01:11:04.548Z,16.20
2017-07-01T01:13:31.980Z,16.20
2017-07-01T01:15:58.569Z,16.20
2017-07-01T01:18:25.136Z,16.20
2017-07-01T01:20:51.719Z,16.10
2017-07-01T01:23:18.264Z,16.10
2017-07-01T01:25:45.026Z,16.10
2017-07-01T01:28:11.584Z,16.10
2017-07-01T01:30:38.087Z,16.10
2017-07-01T01:33:04.690Z,16.10
2017-07-01T01:35:32.015Z,16.20
2017-07-01T01:37:58.825Z,16.20
2017-07-01T01:40:25.356Z,16.20
2017-07-01T01:42:51.925Z,16.20
2017-07-01T01:45:18.520Z,16.20
2017-07-01T01:47:45.071Z,16.20
2017-07-01T01:50:11.701Z,16.20
2017-07-01T01:52:38.238Z,16.20
2017-07-01T01:55:04.767Z,16.20
2017-07-01T01:57:31.385Z,16.20
2017-07-01T01:59:57.928Z,16.20
2017-07-01T02:02:24.513Z,16.20
2017-07-01T02:04:51.091Z,16.20
2017-07-01T02:07:17.653Z,16.20
2017-07-01T02:09:44.221Z,16.20
2017-07-01T02:12:30.158Z,16.20
2017-07-01T02:15:04.878Z,16.20
2017-07-01T02:17:55.943Z,16.30
2017-07-01T02:20:53.123Z,16.30
2017-07-01T02:23:19.709Z,16.30
2017-07-01T02:26:11.606Z,16.30
2017-07-01T02:28:38.184Z,16.30
2017-07-01T02:31:04.677Z,16.30
2017-07-01T02:33:31.270Z,16.40
2017-07-01T02:36:20.414Z,16.30
2017-07-01T02:38:46.981Z,16.30
2017-07-01T02:41:13.522Z,16.30
2017-07-01T02:43:40.145Z,16.40
2017-07-01T02:46:18.511Z,16.40
2017-07-01T02:49:00.537Z,16.40
2017-07-01T02:51:36.853Z,16.40
2017-07-01T02:54:03.485Z,16.40
2017-07-01T02:56:43.807Z,16.40
2017-07-01T02:59:14.837Z,16.40
2017-07-01T03:01:42.179Z,16.40
2017-07-01T03:04:08.731Z,16.40
2017-07-01T03:06:35.383Z,16.40
2017-07-01T03:09:01.944Z,16.40
2017-07-01T03:11:28.548Z,16.40
2017-07-01T03:13:55.137Z,16.40
2017-07-01T03:16:21.971Z,16.40
2017-07-01T03:18:48.507Z,16.40
2017-07-01T03:21:15.118Z,16.40
2017-07-01T03:23:41.721Z,16.50
2017-07-01T03:26:09.373Z,16.50
2017-07-01T03:28:35.927Z,16.40
2017-07-01T03:31:02.464Z,16.50
2017-07-01T03:33:33.826Z,16.50
2017-07-01T03:36:00.393Z,16.50
2017-07-01T03:38:45.303Z,16.50
2017-07-01T03:41:42.682Z,16.50
2017-07-01T03:44:25.946Z,16.50
2017-07-01T03:46:52.519Z,16.50
2017-07-01T03:49:40.846Z,16.50
2017-07-01T03:52:08.152Z,16.50
2017-07-01T03:54:36.427Z,16.50
2017-07-01T03:57:03.199Z,16.50
2017-07-01T03:59:30.491Z,16.50
2017-07-01T04:01:57.025Z,16.50
2017-07-01T04:04:23.605Z,16.50
2017-07-01T04:06:50.152Z,16.50
2017-07-01T04:09:17.676Z,16.50
2017-07-01T04:11:45.107Z,16.50
2017-07-01T04:14:11.643Z,16.50
2017-07-01T04:16:38.241Z,16.60
2017-07-01T04:19:07.477Z,16.60
2017-07-01T04:21:34.212Z,16.60
2017-07-01T04:24:00.750Z,16.60
2017-07-01T04:26:27.282Z,16.60
2017-07-01T04:28:53.876Z,16.60
2017-07-01T04:31:21.153Z,16.70
2017-07-01T04:33:47.741Z,16.70
2017-07-01T04:36:14.327Z,16.70
2017-07-01T04:38:59.032Z,16.70
2017-07-01T04:41:27.605Z,16.80
2017-07-01T04:44:08.082Z,16.80
2017-07-01T04:46:34.607Z,16.90
2017-07-01T04:49:04.902Z,16.90
2017-07-01T04:51:43.463Z,17.00
2017-07-01T04:54:21.633Z,17.00
2017-07-01T04:57:20.889Z,17.00
2017-07-01T04:59:52.325Z,17.10
2017-07-01T05:02:19.636Z,17.10
2017-07-01T05:04:47.728Z,17.10
2017-07-01T05:07:44.555Z,17.20
2017-07-01T05:10:34.744Z,17.20
2017-07-01T05:13:01.582Z,17.20
2017-07-01T05:15:43.973Z,17.30
2017-07-01T05:18:10.555Z,17.30
2017-07-01T05:20:39.612Z,17.30
2017-07-01T05:23:29.263Z,17.30
2017-07-01T05:26:07.779Z,17.30
2017-07-01T05:28:48.762Z,17.40
2017-07-01T05:31:31.213Z,17.40
2017-07-01T05:34:33.993Z,17.50
2017-07-01T05:37:01.342Z,17.60
2017-07-01T05:39:29.830Z,17.60
2017-07-01T05:42:16.772Z,17.60
2017-07-01T05:44:50.151Z,17.60
2017-07-01T05:47:16.711Z,17.60
2017-07-01T05:49:43.248Z,17.60
2017-07-01T05:52:09.835Z,17.50
2017-07-01T05:54:37.160Z,17.40
2017-07-01T05:57:03.980Z,17.40
2017-07-01T05:59:38.399Z,17.30
2017-07-01T06:02:19.835Z,17.30
2017-07-01T06:04:47.149Z,17.30
2017-07-01T06:07:13.697Z,17.30
2017-07-01T06:10:08.261Z,17.30
2017-07-01T06:13:09.242Z,17.30
2017-07-01T06:16:00.165Z,17.40
2017-07-01T06:18:41.823Z,17.50
2017-07-01T06:21:37.059Z,17.40
2017-07-01T06:24:10.011Z,17.60
2017-07-01T06:26:49.027Z,17.60
2017-07-01T06:29:52.574Z,17.80
2017-07-01T06:33:03.911Z,17.90
2017-07-01T06:35:30.945Z,18.00
2017-07-01T06:38:31.115Z,18.30
2017-07-01T06:41:34.856Z,19.10
2017-07-01T06:44:06.294Z,19.00
2017-07-01T06:47:07.445Z,19.50
2017-07-01T06:49:40.914Z,19.60
2017-07-01T06:52:23.780Z,20.20
2017-07-01T06:54:50.603Z,20.20
2017-07-01T06:57:17.154Z,20.50
2017-07-01T06:59:43.687Z,20.70
2017-07-01T07:02:10.224Z,21.00
2017-07-01T07:04:36.865Z,21.00
2017-07-01T07:07:03.470Z,21.10
2017-07-01T07:09:29.997Z,21.10
2017-07-01T07:11:56.603Z,21.20
2017-07-01T07:14:23.915Z,21.70
2017-07-01T07:16:50.533Z,21.60
2017-07-01T07:19:17.146Z,21.70
2017-07-01T07:21:43.721Z,21.70
2017-07-01T07:24:10.289Z,21.70
2017-07-01T07:26:37.635Z,21.80
2017-07-01T07:29:12.807Z,21.80
2017-07-01T07:31:39.383Z,22.00
2017-07-01T07:34:05.925Z,22.20
2017-07-01T07:36:32.500Z,22.50
2017-07-01T07:38:59.082Z,22.90
2017-07-01T07:41:25.697Z,23.20
2017-07-01T07:43:52.185Z,23.50
2017-07-01T07:46:19.409Z,23.90
2017-07-01T07:48:45.956Z,23.90
2017-07-01T07:51:12.409Z,24.00
2017-07-01T07:53:39.653Z,23.90
2017-07-01T07:56:06.900Z,24.00
2017-07-01T07:58:34.129Z,24.10
2017-07-01T08:01:00.643Z,24.10
2017-07-01T08:03:27.137Z,24.40
2017-07-01T08:05:53.665Z,24.60
2017-07-01T08:08:20.892Z,24.60
2017-07-01T08:10:47.358Z,24.50
2017-07-01T08:13:13.882Z,24.50
2017-07-01T08:15:40.394Z,24.20
2017-07-01T08:18:07.705Z,23.60
2017-07-01T08:20:34.218Z,23.60
2017-07-01T08:23:00.680Z,23.50
2017-07-01T08:25:27.226Z,23.30
2017-07-01T08:27:53.686Z,23.20
2017-07-01T08:30:20.216Z,23.20
2017-07-01T08:32:46.711Z,23.50
2017-07-01T08:35:20.279Z,24.10
2017-07-01T08:37:46.790Z,24.50
2017-07-01T08:40:13.972Z,25.50
2017-07-01T08:42:40.474Z,25.40
2017-07-01T08:45:07.685Z,25.90
2017-07-01T08:47:34.217Z,25.90
2017-07-01T08:50:00.705Z,26.10
2017-07-01T08:52:27.197Z,26.40
2017-07-01T08:54:53.689Z,26.50
2017-07-01T08:57:20.222Z,26.60
2017-07-01T08:59:46.739Z,26.80
2017-07-01T09:02:13.267Z,27.00
2017-07-01T09:04:39.899Z,27.20
2017-07-01T09:07:06.385Z,27.40
2017-07-01T09:09:32.865Z,27.20
2017-07-01T09:11:59.412Z,26.90
2017-07-01T09:14:25.865Z,27.00
2017-07-01T09:16:52.363Z,27.10
2017-07-01T09:19:18.908Z,27.50
2017-07-01T09:21:45.396Z,27.90
2017-07-01T09:24:11.940Z,28.00
2017-07-01T09:26:39.195Z,27.90
2017-07-01T09:29:06.392Z,27.90
2017-07-01T09:31:32.938Z,27.90
2017-07-01T09:33:59.388Z,28.00
2017-07-01T09:36:25.838Z,28.10
2017-07-01T09:38:53.080Z,28.00
2017-07-01T09:41:19.572Z,28.00
2017-07-01T09:43:46.093Z,27.80
2017-07-01T09:46:12.594Z,27.80
2017-07-01T09:48:39.267Z,27.50
2017-07-01T09:51:05.753Z,27.50
2017-07-01T09:53:32.970Z,26.70
2017-07-01T09:55:59.687Z,26.60
2017-07-01T09:58:26.174Z,26.00
2017-07-01T10:00:53.406Z,24.90
2017-07-01T10:03:19.939Z,24.90
2017-07-01T10:05:46.412Z,24.60
2017-07-01T10:08:12.922Z,24.90
2017-07-01T10:10:40.128Z,25.30
2017-07-01T10:13:06.612Z,25.30
2017-07-01T10:15:33.301Z,25.70
2017-07-01T10:17:59.847Z,26.00
2017-07-01T10:20:26.420Z,26.20
2017-07-01T10:22:53.669Z,26.00
2017-07-01T10:25:20.913Z,26.20
2017-07-01T10:27:48.203Z,26.30
2017-07-01T10:30:14.701Z,26.30
2017-07-01T10:32:41.973Z,26.30
2017-07-01T10:35:08.492Z,26.20
2017-07-01T10:37:36.002Z,26.40
2017-07-01T10:40:02.577Z,26.40
2017-07-01T10:42:29.076Z,26.30
2017-07-01T10:44:55.623Z,25.90
2017-07-01T10:47:22.119Z,25.40
2017-07-01T10:49:48.615Z,25.10
2017-07-01T10:52:15.870Z,25.40
2017-07-01T10:54:42.335Z,25.30
2017-07-01T10:57:08.869Z,25.20
2017-07-01T10:59:35.358Z,24.90
2017-07-01T11:02:02.626Z,24.40
2017-07-01T11:04:29.103Z,24.30
2017-07-01T11:06:55.576Z,24.10
2017-07-01T11:09:22.861Z,23.80
2017-07-01T11:11:49.358Z,23.70
2017-07-01T11:14:15.848Z,23.50
2017-07-01T11:16:42.374Z,23.30
2017-07-01T11:19:08.879Z,23.30
2017-07-01T11:21:35.397Z,23.40
2017-07-01T11:24:01.913Z,23.50
2017-07-01T11:26:29.139Z,23.40
2017-07-01T11:28:55.618Z,23.30
2017-07-01T11:31:22.139Z,23.40
2017-07-01T11:33:49.384Z,23.30
2017-07-01T11:36:16.606Z,23.30
2017-07-01T11:38:43.126Z,23.20
2017-07-01T11:41:09.638Z,23.20
2017-07-01T11:43:36.245Z,23.20
2017-07-01T11:46:02.738Z,23.30
2017-07-01T11:48:29.236Z,23.40
2017-07-01T11:50:55.982Z,23.40
2017-07-01T11:53:22.445Z,23.40
2017-07-01T11:55:48.935Z,23.30
2017-07-01T11:58:15.454Z,23.30
2017-07-01T12:00:41.929Z,23.30
2017-07-01T12:03:08.420Z,23.30
2017-07-01T12:05:34.943Z,23.30
2017-07-01T12:08:02.219Z,23.40
2017-07-01T12:10:28.709Z,23.40
2017-07-01T12:12:55.935Z,23.50
2017-07-01T12:15:22.455Z,23.50
2017-07-01T12:17:49.735Z,23.50
2017-07-01T12:20:16.361Z,23.60
2017-07-01T12:22:42.880Z,23.60
2017-07-01T12:25:09.365Z,23.70
2017-07-01T12:27:35.928Z,23.70
2017-07-01T12:30:02.384Z,23.70
2017-07-01T12:32:28.894Z,23.60
2017-07-01T12:34:55.356Z,23.60
2017-07-01T12:37:21.860Z,23.60
2017-07-01T12:39:48.344Z,23.60
2017-07-01T12:42:15.577Z,23.50
2017-07-01T12:44:42.109Z,23.50
2017-07-01T12:47:08.579Z,23.50
2017-07-01T12:49:35.051Z,23.40
2017-07-01T12:52:01.589Z,23.40
2017-07-01T12:54:28.067Z,23.40
2017-07-01T12:56:55.344Z,23.30
2017-07-01T12:59:21.853Z,23.30
2017-07-01T13:01:48.362Z,23.30
2017-07-01T13:04:14.843Z,23.30
2017-07-01T13:06:41.359Z,23.20
2017-07-01T13:09:07.903Z,23.20
2017-07-01T13:11:34.382Z,23.20
2017-07-01T13:14:00.870Z,23.20
2017-07-01T13:16:27.391Z,23.20
2017-07-01T13:18:53.891Z,23.20
2017-07-01T13:21:20.499Z,23.20
2017-07-01T13:23:47.022Z,23.30
2017-07-01T13:26:13.546Z,23.30
2017-07-01T13:28:40.010Z,23.40
2017-07-01T13:31:06.476Z,23.40
2017-07-01T13:33:33.001Z,23.50
2017-07-01T13:35:59.453Z,23.60
2017-07-01T13:38:25.929Z,23.60
2017-07-01T13:40:52.424Z,23.50
2017-07-01T13:43:18.895Z,23.50
2017-07-01T13:45:45.427Z,23.50
2017-07-01T13:48:11.888Z,23.40
2017-07-01T13:50:38.432Z,23.30
2017-07-01T13:53:04.912Z,23.30
2017-07-01T13:55:31.422Z,23.30
2017-07-01T13:57:58.055Z,23.30
2017-07-01T14:00:24.551Z,23.40
2017-07-01T14:02:51.012Z,23.40
2017-07-01T14:05:18.260Z,23.40
2017-07-01T14:07:45.468Z,23.40
2017-07-01T14:10:11.977Z,23.30
2017-07-01T14:12:38.471Z,23.30
2017-07-01T14:15:05.733Z,23.30
2017-07-01T14:17:32.220Z,23.30
2017-07-01T14:19:58.715Z,23.30
2017-07-01T14:22:25.473Z,23.40
2017-07-01T14:24:51.958Z,23.40
2017-07-01T14:27:19.197Z,23.50
2017-07-01T14:29:46.442Z,23.50
2017-07-01T14:32:12.897Z,23.50
2017-07-01T14:34:39.433Z,23.50
2017-07-01T14:37:05.901Z,23.40
2017-07-01T14:39:32.439Z,23.30
2017-07-01T14:41:58.904Z,23.20
2017-07-01T14:44:25.400Z,23.20
2017-07-01T14:46:52.064Z,23.10
2017-07-01T14:49:18.558Z,23.10
2017-07-01T14:51:45.036Z,23.10
2017-07-01T14:54:11.536Z,23.00
2017-07-01T14:56:38.022Z,23.00
2017-07-01T14:59:05.268Z,23.00
2017-07-01T15:01:32.490Z,23.00
2017-07-01T15:03:58.927Z,22.90
2017-07-01T15:06:25.455Z,23.00
2017-07-01T15:08:51.953Z,22.90
2017-07-01T15:11:18.446Z,22.90
2017-07-01T15:13:45.712Z,22.90
2017-07-01T15:16:12.202Z,22.90
2017-07-01T15:18:38.673Z,22.90
2017-07-01T15:21:05.927Z,23.00
2017-07-01T15:23:32.518Z,23.00
2017-07-01T15:25:58.989Z,23.00
2017-07-01T15:28:26.223Z,23.00
2017-07-01T15:30:53.475Z,23.00
2017-07-01T15:33:20.703Z,23.00
2017-07-01T15:35:47.226Z,23.00
2017-07-01T15:38:13.696Z,23.00
2017-07-01T15:40:40.154Z,23.00
2017-07-01T15:43:06.659Z,22.90
2017-07-01T15:45:33.877Z,22.90
2017-07-01T15:48:00.368Z,22.80
2017-07-01T15:50:27.134Z,22.80
2017-07-01T15:52:53.657Z,22.80
2017-07-01T15:55:20.125Z,22.80
2017-07-01T15:57:46.750Z,22.80
2017-07-01T16:00:13.325Z,22.80
2017-07-01T16:02:40.544Z,22.80
2017-07-01T16:05:07.072Z,22.80
2017-07-01T16:07:33.533Z,22.80
2017-07-01T16:10:00.867Z,22.80
2017-07-01T16:12:27.357Z,22.80
2017-07-01T16:14:53.935Z,22.70
2017-07-01T16:17:20.384Z,22.60
2017-07-01T16:19:46.929Z,22.60
2017-07-01T16:22:13.416Z,22.60
2017-07-01T16:24:39.918Z,22.60
2017-07-01T16:27:06.466Z,22.60
2017-07-01T16:29:32.940Z,22.60
2017-07-01T16:31:59.453Z,22.60
2017-07-01T16:34:25.963Z,22.50
2017-07-01T16:36:52.469Z,22.50
2017-07-01T16:39:18.982Z,22.50
2017-07-01T16:41:46.198Z,22.40
2017-07-01T16:44:12.748Z,22.40
2017-07-01T16:46:39.265Z,22.30
2017-07-01T16:49:05.750Z,22.30
2017-07-01T16:51:32.274Z,22.30
2017-07-01T16:53:58.770Z,22.20
2017-07-01T16:56:25.221Z,22.20
2017-07-01T16:58:52.521Z,22.10
2017-07-01T17:01:18.989Z,22.10
2017-07-01T17:03:45.496Z,22.10
2017-07-01T17:06:12.001Z,22.00
2017-07-01T17:08:38.487Z,22.00
2017-07-01T17:11:04.962Z,22.00
2017-07-01T17:13:31.481Z,22.10
2017-07-01T17:15:58.697Z,22.00
2017-07-01T17:18:25.234Z,22.00
2017-07-01T17:20:51.740Z,22.00
2017-07-01T17:23:18.255Z,22.00
2017-07-01T17:25:44.938Z,22.00
2017-07-01T17:28:11.406Z,21.90
2017-07-01T17:30:37.957Z,21.80
2017-07-01T17:33:04.467Z,21.70
2017-07-01T17:35:31.681Z,21.60
2017-07-01T17:37:58.202Z,21.50
2017-07-01T17:40:24.677Z,21.50
2017-07-01T17:42:52.038Z,21.30
2017-07-01T17:45:18.553Z,21.30
2017-07-01T17:47:45.762Z,21.20
2017-07-01T17:50:12.318Z,21.10
2017-07-01T17:52:38.814Z,21.10
2017-07-01T17:55:05.329Z,21.00
2017-07-01T17:57:31.844Z,21.00
2017-07-01T17:59:59.051Z,21.00
2017-07-01T18:02:25.568Z,21.00
2017-07-01T18:04:52.045Z,21.00
2017-07-01T18:07:19.375Z,20.90
2017-07-01T18:09:45.859Z,20.90
2017-07-01T18:12:12.344Z,20.90
2017-07-01T18:14:38.847Z,20.80
2017-07-01T18:17:05.322Z,20.70
2017-07-01T18:19:31.801Z,20.70
2017-07-01T18:21:58.302Z,20.70
2017-07-01T18:24:25.540Z,20.60
2017-07-01T18:26:52.069Z,20.60
2017-07-01T18:29:18.566Z,20.50
2017-07-01T18:31:45.184Z,20.50
2017-07-01T18:34:11.693Z,20.40
2017-07-01T18:36:38.158Z,20.40
2017-07-01T18:39:04.670Z,20.30
2017-07-01T18:41:31.136Z,20.30
2017-07-01T18:43:57.661Z,20.20
2017-07-01T18:46:24.143Z,20.20
2017-07-01T18:48:50.712Z,20.10
2017-07-01T18:51:17.205Z,20.10
2017-07-01T18:53:43.666Z,20.10
2017-07-01T18:56:10.214Z,20.10
2017-07-01T18:58:36.673Z,20.10
2017-07-01T19:01:03.414Z,20.00
2017-07-01T19:03:29.943Z,20.00
2017-07-01T19:05:57.261Z,20.00
2017-07-01T19:08:24.596Z,20.00
2017-07-01T19:10:51.073Z,19.90
2017-07-01T19:13:17.582Z,19.90
2017-07-01T19:15:44.090Z,19.90
2017-07-01T19:18:11.357Z,19.90
2017-07-01T19:20:37.988Z,19.90
2017-07-01T19:23:05.204Z,19.90
2017-07-01T19:25:31.677Z,19.90
2017-07-01T19:27:58.439Z,19.90
2017-07-01T19:30:24.891Z,19.80
2017-07-01T19:32:51.350Z,19.80
2017-07-01T19:35:17.850Z,19.80
2017-07-01T19:37:44.318Z,19.80
2017-07-01T19:40:10.810Z,19.80
2017-07-01T19:42:37.345Z,19.80
2017-07-01T19:45:03.894Z,19.80
2017-07-01T19:47:30.364Z,19.80
2017-07-01T19:49:57.567Z,19.70
2017-07-01T19:52:24.090Z,19.70
2017-07-01T19:54:50.546Z,19.70
2017-07-01T19:57:17.107Z,19.70
2017-07-01T19:59:43.663Z,19.70
2017-07-01T20:02:10.223Z,19.70
2017-07-01T20:04:36.746Z,19.70
2017-07-01T20:07:03.237Z,19.70
2017-07-01T20:09:29.802Z,19.70
2017-07-01T20:11:56.356Z,19.70
2017-07-01T20:14:22.874Z,19.60
2017-07-01T20:16:49.535Z,19.60
2017-07-01T20:19:16.031Z,19.60
2017-07-01T20:21:42.525Z,19.60
2017-07-01T20:24:09.085Z,19.60
2017-07-01T20:26:35.583Z,19.50
2017-07-01T20:29:02.193Z,19.50
2017-07-01T20:31:28.654Z,19.50
2017-07-01T20:33:55.133Z,19.40
2017-07-01T20:36:21.723Z,19.40
2017-07-01T20:38:48.202Z,19.30
2017-07-01T20:41:14.743Z,19.20
2017-07-01T20:43:41.226Z,19.10
2017-07-01T20:46:07.690Z,19.00
2017-07-01T20:48:34.210Z,19.00
2017-07-01T20:51:01.421Z,18.70
2017-07-01T20:53:27.952Z,18.70
2017-07-01T20:55:54.460Z,18.70
2017-07-01T20:58:20.959Z,18.60
2017-07-01T21:00:48.241Z,18.50
2017-07-01T21:03:14.708Z,18.40
2017-07-01T21:05:41.247Z,18.40
2017-07-01T21:08:07.745Z,18.30
2017-07-01T21:10:34.253Z,18.40
2017-07-01T21:13:00.784Z,18.30
2017-07-01T21:15:27.256Z,18.40
2017-07-01T21:17:53.824Z,18.40
2017-07-01T21:20:20.343Z,18.40
2017-07-01T21:22:46.858Z,18.40
2017-07-01T21:25:13.382Z,18.30
2017-07-01T21:27:46.787Z,18.30
2017-07-01T21:30:13.366Z,18.20
2017-07-01T21:32:40.554Z,18.20
2017-07-01T21:35:07.044Z,18.20
2017-07-01T21:37:34.306Z,18.10
2017-07-01T21:40:01.545Z,18.10
2017-07-01T21:42:28.966Z,18.10
2017-07-01T21:44:55.429Z,18.00
2017-07-01T21:47:21.875Z,18.00
2017-07-01T21:49:48.390Z,17.90
2017-07-01T21:52:14.856Z,18.00
2017-07-01T21:54:41.441Z,17.90
2017-07-01T21:57:07.925Z,17.90
2017-07-01T21:59:34.431Z,17.90
2017-07-01T22:02:01.725Z,17.80
2017-07-01T22:04:28.231Z,17.80
2017-07-01T22:06:54.724Z,17.80
2017-07-01T22:09:21.191Z,17.80
2017-07-01T22:11:48.392Z,17.90
2017-07-01T22:14:14.915Z,17.90
2017-07-01T22:16:41.403Z,17.90
2017-07-01T22:19:07.929Z,17.90
2017-07-01T22:21:35.147Z,17.80
2017-07-01T22:24:01.690Z,17.80
2017-07-01T22:26:28.169Z,17.80
2017-07-01T22:28:54.680Z,17.80
2017-07-01T22:31:21.929Z,17.70
2017-07-01T22:33:49.155Z,17.70
2017-07-01T22:36:15.668Z,17.70
2017-07-01T22:38:42.349Z,17.70
2017-07-01T22:41:09.593Z,17.70
2017-07-01T22:43:36.115Z,17.70
2017-07-01T22:46:02.598Z,17.70
2017-07-01T22:48:29.138Z,17.70
2017-07-01T22:50:55.620Z,17.80
2017-07-01T22:53:22.310Z,17.80
2017-07-01T22:55:48.798Z,17.70
2017-07-01T22:58:16.020Z,17.80
2017-07-01T23:00:42.530Z,17.80
2017-07-01T23:03:08.989Z,17.80
2017-07-01T23:05:35.702Z,17.80
2017-07-01T23:08:02.195Z,17.80
2017-07-01T23:10:29.424Z,17.70
2017-07-01T23:12:55.923Z,17.80
2017-07-01T23:15:22.420Z,17.70
2017-07-01T23:17:48.956Z,17.80
2017-07-01T23:20:15.464Z,17.80
2017-07-01T23:22:42.927Z,17.70
2017-07-01T23:25:10.141Z,17.80
2017-07-01T23:27:36.631Z,17.70
2017-07-01T23:30:03.413Z,17.80
2017-07-01T23:32:29.868Z,17.70
2017-07-01T23:34:57.089Z,17.70
2017-07-01T23:37:23.591Z,17.70
2017-07-01T23:39:50.098Z,17.70
2017-07-01T23:42:17.494Z,17.70
2017-07-01T23:44:43.973Z,17.70
2017-07-01T23:47:11.193Z,17.70
2017-07-01T23:49:37.991Z,17.70
2017-07-01T23:52:04.484Z,17.70
2017-07-01T23:54:30.991Z,17.70
2017-07-01T23:56:57.492Z,17.70
2017-07-01T23:59:23.981Z,17.70
